Time;durP1;ratioP1;P1;durP2;ratioP2;P2;SDS_P1;SDS_P2;PMS_P1;PMS_P2;Temp;Humidity;BMP_temperature;BMP_pressure;BME280_temperature;BME280_humidity;BME280_pressure;Samples;Min_cycle;Max_cycle;Signal;HPM_P1;HPM_P2
2022/10/24 00:01:15;;;;;;;21.80;20.33;;;;;;;;;;5115214;28;20445;-78
2022/10/24 00:03:43;;;;;;;21.47;20.27;;;;;;;;;;5115544;28;20464;-78
2022/10/24 00:06:11;;;;;;;21.87;20.30;;;;;;;;;;5115942;28;20900;-77
2022/10/24 00:08:39;;;;;;;21.37;20.17;;;;;;;;;;5115682;28;20427;-77
2022/10/24 00:11:11;;;;;;;21.93;20.50;;;;;;;;;;5114490;27;20504;-77
2022/10/24 00:13:38;;;;;;;22.10;21.00;;;;;;;;;;5115275;28;20472;-77
2022/10/24 00:16:06;;;;;;;23.20;21.77;;;;;;;;;;5115861;28;20443;-77
2022/10/24 00:18:33;;;;;;;22.10;20.83;;;;;;;;;;5115294;28;20422;-78
2022/10/24 00:21:01;;;;;;;22.67;20.77;;;;;;;;;;5114244;27;20865;-77
2022/10/24 00:23:28;;;;;;;22.30;21.07;;;;;;;;;;5115221;28;20447;-77
2022/10/24 00:25:55;;;;;;;22.50;21.20;;;;;;;;;;5115272;28;20455;-77
2022/10/24 00:28:24;;;;;;;23.77;21.43;;;;;;;;;;5115111;28;20447;-77
2022/10/24 00:30:52;;;;;;;22.23;21.03;;;;;;;;;;5115417;28;20474;-79
2022/10/24 00:33:19;;;;;;;22.00;20.80;;;;;;;;;;5114022;27;20484;-78
2022/10/24 00:35:46;;;;;;;21.93;20.63;;;;;;;;;;5114869;28;20481;-77
2022/10/24 00:38:14;;;;;;;22.73;21.03;;;;;;;;;;5114776;28;20921;-78
2022/10/24 00:40:41;;;;;;;21.37;19.87;;;;;;;;;;5114891;28;20418;-77
2022/10/24 00:43:11;;;;;;;22.37;21.17;;;;;;;;;;5114533;28;20442;-77
2022/10/24 00:45:42;;;;;;;22.00;20.60;;;;;;;;;;5114944;28;20488;-77
2022/10/24 00:48:15;;;;;;;21.93;20.73;;;;;;;;;;5114269;27;20445;-77
2022/10/24 00:50:43;;;;;;;22.53;20.93;;;;;;;;;;5114552;28;20427;-77
2022/10/24 00:53:10;;;;;;;22.83;21.27;;;;;;;;;;5114796;28;20479;-80
2022/10/24 00:55:38;;;;;;;22.20;20.40;;;;;;;;;;5118578;28;20422;-80
2022/10/24 00:58:06;;;;;;;22.43;20.93;;;;;;;;;;5117740;27;20979;-80
2022/10/24 01:00:34;;;;;;;21.67;20.27;;;;;;;;;;5118225;28;20517;-80
2022/10/24 01:03:03;;;;;;;22.00;20.80;;;;;;;;;;5117790;28;20453;-80
2022/10/24 01:05:32;;;;;;;21.70;20.50;;;;;;;;;;5118107;28;20450;-80
2022/10/24 01:08:06;;;;;;;22.70;21.30;;;;;;;;;;5118092;28;20443;-79
2022/10/24 01:10:36;;;;;;;22.10;20.60;;;;;;;;;;5117646;28;20435;-79
2022/10/24 01:13:10;;;;;;;23.30;21.80;;;;;;;;;;5116616;27;20487;-80
2022/10/24 01:15:41;;;;;;;23.30;21.30;;;;;;;;;;5117541;28;20399;-80
2022/10/24 01:18:12;;;;;;;23.03;21.30;;;;;;;;;;5117922;28;20407;-80
2022/10/24 01:20:44;;;;;;;24.70;23.00;;;;;;;;;;5117421;28;20436;-80
2022/10/24 01:23:27;;;;;;;23.93;22.50;;;;;;;;;;5116764;28;20482;-80
2022/10/24 01:25:59;;;;;;;23.43;22.13;;;;;;;;;;5117173;27;20469;-80
2022/10/24 01:28:30;;;;;;;23.33;21.83;;;;;;;;;;5117778;28;20447;-79
2022/10/24 01:31:03;;;;;;;23.70;22.03;;;;;;;;;;5117024;28;20424;-80
2022/10/24 01:33:32;;;;;;;24.70;22.90;;;;;;;;;;5117670;28;21006;-79
2022/10/24 01:36:02;;;;;;;23.70;22.00;;;;;;;;;;5117524;28;21108;-80
2022/10/24 01:38:33;;;;;;;23.17;21.77;;;;;;;;;;5117428;27;20445;-80
2022/10/24 01:41:03;;;;;;;23.27;21.87;;;;;;;;;;5117592;28;20435;-80
2022/10/24 01:43:32;;;;;;;23.17;21.63;;;;;;;;;;5117358;28;20438;-80
2022/10/24 01:46:04;;;;;;;24.53;22.67;;;;;;;;;;5117200;28;20450;-80
2022/10/24 01:48:33;;;;;;;23.93;22.20;;;;;;;;;;5116309;27;20475;-80
2022/10/24 01:51:02;;;;;;;24.77;23.03;;;;;;;;;;5116740;28;20789;-80
2022/10/24 01:53:31;;;;;;;24.40;22.70;;;;;;;;;;5116912;28;20445;-79
2022/10/24 01:55:59;;;;;;;24.73;22.87;;;;;;;;;;5117532;28;20440;-80
2022/10/24 01:58:26;;;;;;;25.20;23.07;;;;;;;;;;5115757;27;20538;-80
2022/10/24 02:00:55;;;;;;;23.57;22.17;;;;;;;;;;5115768;28;20407;-80
2022/10/24 02:03:28;;;;;;;24.10;22.47;;;;;;;;;;5115643;28;20461;-80
2022/10/24 02:05:57;;;;;;;25.23;23.50;;;;;;;;;;5116825;28;20471;-80
2022/10/24 02:08:29;;;;;;;25.00;22.93;;;;;;;;;;5116306;27;20434;-80
2022/10/24 02:10:59;;;;;;;25.07;22.87;;;;;;;;;;5115372;28;20460;-80
2022/10/24 02:13:27;;;;;;;24.63;22.70;;;;;;;;;;5115469;28;20527;-80
2022/10/24 02:15:57;;;;;;;23.83;22.53;;;;;;;;;;5115521;28;20837;-80
2022/10/24 02:18:26;;;;;;;24.90;23.30;;;;;;;;;;5115635;28;21028;-80
2022/10/24 02:20:55;;;;;;;24.80;22.90;;;;;;;;;;5114390;27;20467;-78
2022/10/24 02:23:27;;;;;;;23.83;22.40;;;;;;;;;;5113202;28;20460;-78
2022/10/24 02:25:56;;;;;;;24.60;23.20;;;;;;;;;;5113247;28;20510;-78
2022/10/24 02:28:25;;;;;;;25.30;23.60;;;;;;;;;;5112905;28;20451;-77
2022/10/24 02:30:54;;;;;;;23.77;22.30;;;;;;;;;;5112245;27;20472;-78
2022/10/24 02:33:22;;;;;;;25.93;24.43;;;;;;;;;;5113258;28;20464;-78
2022/10/24 02:35:52;;;;;;;25.83;24.00;;;;;;;;;;5113012;28;20446;-77
2022/10/24 02:38:21;;;;;;;26.73;25.03;;;;;;;;;;5112800;28;20954;-77
2022/10/24 02:40:49;;;;;;;25.27;23.67;;;;;;;;;;5112684;28;20419;-78
2022/10/24 02:43:18;;;;;;;24.00;22.17;;;;;;;;;;5111900;27;20475;-76
2022/10/24 02:45:45;;;;;;;25.10;23.43;;;;;;;;;;5112868;28;20956;-78
2022/10/24 02:48:15;;;;;;;25.80;23.97;;;;;;;;;;5112947;28;20843;-77
2022/10/24 02:50:42;;;;;;;24.53;22.93;;;;;;;;;;5112656;28;20419;-77
2022/10/24 02:53:13;;;;;;;24.57;23.10;;;;;;;;;;5111546;27;20454;-78
2022/10/24 02:55:41;;;;;;;24.80;23.17;;;;;;;;;;5112876;28;20927;-78
2022/10/24 02:58:08;;;;;;;25.70;23.80;;;;;;;;;;5112741;28;20944;-77
2022/10/24 03:00:35;;;;;;;25.10;23.20;;;;;;;;;;5112922;28;20475;-77
2022/10/24 03:03:03;;;;;;;25.00;23.30;;;;;;;;;;5111662;27;20462;-78
2022/10/24 03:05:30;;;;;;;25.63;23.90;;;;;;;;;;5112552;28;21229;-77
2022/10/24 03:07:58;;;;;;;25.07;23.30;;;;;;;;;;5113055;28;20418;-78
2022/10/24 03:10:26;;;;;;;24.77;23.07;;;;;;;;;;5113203;28;20451;-77
2022/10/24 03:12:54;;;;;;;23.57;22.10;;;;;;;;;;5116058;28;20451;-77
2022/10/24 03:15:21;;;;;;;24.83;23.30;;;;;;;;;;5116891;28;20426;-78
2022/10/24 03:17:48;;;;;;;25.90;24.10;;;;;;;;;;5116522;28;20448;-78
2022/10/24 03:20:16;;;;;;;24.57;23.07;;;;;;;;;;5116190;28;20413;-78
2022/10/24 03:22:43;;;;;;;25.30;23.60;;;;;;;;;;5115868;28;20816;-77
2022/10/24 03:25:11;;;;;;;25.80;23.20;;;;;;;;;;5116394;28;20460;-77
2022/10/24 03:27:39;;;;;;;24.80;23.20;;;;;;;;;;5115994;28;20478;-78
2022/10/24 03:30:08;;;;;;;24.20;22.80;;;;;;;;;;5115521;27;20446;-77
2022/10/24 03:32:35;;;;;;;25.60;23.87;;;;;;;;;;5115490;28;20443;-77
2022/10/24 03:35:02;;;;;;;23.60;22.30;;;;;;;;;;5116100;28;20421;-78
2022/10/24 03:37:30;;;;;;;24.40;22.30;;;;;;;;;;5115993;28;20418;-77
2022/10/24 03:39:57;;;;;;;25.20;23.40;;;;;;;;;;5116010;28;20426;-78
2022/10/24 03:42:24;;;;;;;23.83;22.07;;;;;;;;;;5115949;28;20434;-78
2022/10/24 03:44:53;;;;;;;25.10;23.27;;;;;;;;;;5116219;28;20444;-78
2022/10/24 03:47:20;;;;;;;26.20;23.67;;;;;;;;;;5116178;28;20479;-77
2022/10/24 03:49:48;;;;;;;25.07;23.10;;;;;;;;;;5115167;27;20484;-78
2022/10/24 03:52:18;;;;;;;23.70;22.47;;;;;;;;;;5115133;28;20426;-78
2022/10/24 03:54:45;;;;;;;24.03;22.60;;;;;;;;;;5115674;28;20436;-77
2022/10/24 03:57:13;;;;;;;22.90;21.40;;;;;;;;;;5115908;28;20430;-77
2022/10/24 03:59:40;;;;;;;25.13;23.43;;;;;;;;;;5115331;27;20472;-78
2022/10/24 04:02:09;;;;;;;23.80;22.30;;;;;;;;;;5115108;28;20893;-77
2022/10/24 04:04:36;;;;;;;28.90;23.53;;;;;;;;;;5115141;28;20446;-78
2022/10/24 04:07:04;;;;;;;23.70;22.10;;;;;;;;;;5115618;28;20501;-77
2022/10/24 04:09:32;;;;;;;24.50;22.87;;;;;;;;;;5115409;28;20422;-78
2022/10/24 04:11:59;;;;;;;24.03;22.57;;;;;;;;;;5114601;27;20454;-77
2022/10/24 04:14:26;;;;;;;24.77;23.33;;;;;;;;;;5115312;28;20454;-78
2022/10/24 04:16:54;;;;;;;24.20;22.47;;;;;;;;;;5115230;28;20454;-77
2022/10/24 04:19:22;;;;;;;27.00;24.67;;;;;;;;;;5115181;28;20433;-76
2022/10/24 04:21:50;;;;;;;26.60;24.43;;;;;;;;;;5114676;28;20455;-76
2022/10/24 04:24:17;;;;;;;25.57;23.77;;;;;;;;;;5115126;28;20446;-77
2022/10/24 04:26:44;;;;;;;26.67;25.03;;;;;;;;;;5115413;28;20458;-77
2022/10/24 04:29:12;;;;;;;27.53;24.63;;;;;;;;;;5113782;28;20430;-78
2022/10/24 04:31:39;;;;;;;25.13;23.73;;;;;;;;;;5114153;27;20477;-77
2022/10/24 04:34:06;;;;;;;27.80;26.20;;;;;;;;;;5114731;28;20446;-78
2022/10/24 04:36:35;;;;;;;27.23;25.43;;;;;;;;;;5114699;28;20940;-77
2022/10/24 04:39:03;;;;;;;26.83;25.33;;;;;;;;;;5115030;28;20455;-76
2022/10/24 04:41:30;;;;;;;26.90;25.27;;;;;;;;;;5114003;27;20472;-78
2022/10/24 04:43:57;;;;;;;28.13;26.30;;;;;;;;;;5114510;28;20982;-78
2022/10/24 04:46:25;;;;;;;25.40;23.47;;;;;;;;;;5114703;28;20476;-78
2022/10/24 04:48:53;;;;;;;26.70;24.40;;;;;;;;;;5114652;28;20418;-77
2022/10/24 04:51:20;;;;;;;25.90;24.17;;;;;;;;;;5114255;28;20479;-78
2022/10/24 04:53:49;;;;;;;28.20;26.30;;;;;;;;;;5113900;27;20483;-77
2022/10/24 04:56:16;;;;;;;26.07;24.47;;;;;;;;;;5114731;28;20786;-78
2022/10/24 04:58:44;;;;;;;25.20;23.70;;;;;;;;;;5114726;28;20455;-77
2022/10/24 05:01:11;;;;;;;26.47;24.57;;;;;;;;;;5113902;28;20459;-77
2022/10/24 05:03:38;;;;;;;25.10;23.30;;;;;;;;;;5113988;27;20459;-77
2022/10/24 05:06:06;;;;;;;25.10;23.30;;;;;;;;;;5114271;28;20450;-77
2022/10/24 05:08:33;;;;;;;25.17;23.20;;;;;;;;;;5114639;28;20432;-78
2022/10/24 05:11:02;;;;;;;24.17;22.67;;;;;;;;;;5113781;28;20451;-78
2022/10/24 05:13:29;;;;;;;25.20;23.60;;;;;;;;;;5114085;28;20478;-77
2022/10/24 05:15:56;;;;;;;24.13;22.73;;;;;;;;;;5113814;27;20450;-78
2022/10/24 05:18:24;;;;;;;26.47;24.87;;;;;;;;;;5113845;28;20415;-76
2022/10/24 05:20:51;;;;;;;23.80;22.40;;;;;;;;;;5113836;28;20433;-78
2022/10/24 05:23:19;;;;;;;25.10;23.60;;;;;;;;;;5113835;28;20915;-77
2022/10/24 05:25:46;;;;;;;24.33;22.83;;;;;;;;;;5114079;28;20426;-78
2022/10/24 05:28:15;;;;;;;24.73;23.10;;;;;;;;;;5113159;27;20499;-78
2022/10/24 05:30:43;;;;;;;22.93;21.83;;;;;;;;;;5114090;28;20443;-77
2022/10/24 05:33:10;;;;;;;23.83;21.47;;;;;;;;;;5112501;28;20484;-77
2022/10/24 05:35:38;;;;;;;23.47;21.73;;;;;;;;;;5113907;28;20587;-77
2022/10/24 05:38:05;;;;;;;24.00;22.37;;;;;;;;;;5113438;27;21117;-78
2022/10/24 05:40:32;;;;;;;22.80;21.30;;;;;;;;;;5114223;28;20433;-79
2022/10/24 05:43:00;;;;;;;23.20;21.30;;;;;;;;;;5113753;28;20443;-78
2022/10/24 05:45:28;;;;;;;22.70;21.17;;;;;;;;;;5113620;28;20425;-78
2022/10/24 05:47:56;;;;;;;23.50;21.97;;;;;;;;;;5113679;28;20465;-79
2022/10/24 05:50:25;;;;;;;22.40;20.73;;;;;;;;;;5113532;27;20433;-78
2022/10/24 05:52:52;;;;;;;22.23;20.90;;;;;;;;;;5113683;28;20450;-78
2022/10/24 05:55:20;;;;;;;21.13;20.03;;;;;;;;;;5113680;28;20414;-78
2022/10/24 05:57:47;;;;;;;22.80;21.20;;;;;;;;;;5113845;28;20431;-78
2022/10/24 06:00:16;;;;;;;21.67;20.47;;;;;;;;;;5113653;28;20422;-79
2022/10/24 06:02:45;;;;;;;22.70;21.00;;;;;;;;;;5112668;27;20454;-78
2022/10/24 06:05:13;;;;;;;22.70;20.87;;;;;;;;;;5113590;28;20903;-79
2022/10/24 06:07:41;;;;;;;21.30;20.00;;;;;;;;;;5113051;28;20483;-78
2022/10/24 06:10:10;;;;;;;20.33;19.30;;;;;;;;;;5113941;28;20795;-78
2022/10/24 06:12:38;;;;;;;20.77;19.47;;;;;;;;;;5112298;27;20847;-78
2022/10/24 06:15:06;;;;;;;21.20;19.60;;;;;;;;;;5113599;28;20441;-79
2022/10/24 06:17:33;;;;;;;20.97;19.47;;;;;;;;;;5113866;28;20432;-78
2022/10/24 06:20:02;;;;;;;19.93;18.83;;;;;;;;;;5113066;28;20451;-76
2022/10/24 06:22:29;;;;;;;20.83;19.43;;;;;;;;;;5117784;27;20471;-79
2022/10/24 06:24:57;;;;;;;20.70;19.23;;;;;;;;;;5114565;28;20420;-76
2022/10/24 06:27:24;;;;;;;20.00;18.70;;;;;;;;;;5116331;28;20498;-76
2022/10/24 06:29:51;;;;;;;19.80;18.80;;;;;;;;;;5113309;28;20429;-76
2022/10/24 06:32:19;;;;;;;20.37;18.97;;;;;;;;;;5112071;28;20938;-75
2022/10/24 06:34:46;;;;;;;20.13;18.83;;;;;;;;;;5112794;27;20442;-76
2022/10/24 06:37:16;;;;;;;19.10;17.97;;;;;;;;;;5113324;28;20424;-76
2022/10/24 06:39:43;;;;;;;19.67;17.93;;;;;;;;;;5113127;28;20443;-76
2022/10/24 06:42:10;;;;;;;20.00;18.50;;;;;;;;;;5113189;28;20427;-77
2022/10/24 06:44:38;;;;;;;20.27;19.07;;;;;;;;;;5113237;27;20454;-76
2022/10/24 06:47:05;;;;;;;19.07;17.83;;;;;;;;;;5117705;28;20994;-78
2022/10/24 06:49:33;;;;;;;19.77;18.40;;;;;;;;;;5116960;28;20426;-75
2022/10/24 06:52:00;;;;;;;19.73;17.83;;;;;;;;;;5116260;28;20959;-76
2022/10/24 06:54:29;;;;;;;19.33;18.23;;;;;;;;;;5117045;28;20459;-76
2022/10/24 06:56:57;;;;;;;19.03;17.70;;;;;;;;;;5117073;28;20445;-76
2022/10/24 06:59:24;;;;;;;18.50;17.50;;;;;;;;;;5116745;28;20426;-77
2022/10/24 07:01:51;;;;;;;17.27;16.40;;;;;;;;;;5116342;28;20902;-76
2022/10/24 07:04:19;;;;;;;18.30;17.20;;;;;;;;;;5115963;27;20885;-76
2022/10/24 07:06:46;;;;;;;18.40;17.10;;;;;;;;;;5116465;28;20452;-77
2022/10/24 07:09:13;;;;;;;18.30;17.07;;;;;;;;;;5116218;28;20932;-76
2022/10/24 07:11:42;;;;;;;17.70;16.60;;;;;;;;;;5116301;28;20445;-76
2022/10/24 07:14:09;;;;;;;18.33;17.10;;;;;;;;;;5115902;27;21011;-76
2022/10/24 07:16:37;;;;;;;17.83;16.73;;;;;;;;;;5116785;28;20459;-76
2022/10/24 07:19:05;;;;;;;18.30;17.10;;;;;;;;;;5116786;28;20451;-76
2022/10/24 07:21:34;;;;;;;18.17;16.73;;;;;;;;;;5116211;28;20447;-77
2022/10/24 07:24:01;;;;;;;18.23;17.10;;;;;;;;;;5116324;28;20794;-77
2022/10/24 07:26:29;;;;;;;18.33;17.20;;;;;;;;;;5115869;27;20472;-76
2022/10/24 07:29:00;;;;;;;17.20;16.40;;;;;;;;;;5116020;28;20492;-77
2022/10/24 07:31:29;;;;;;;16.50;15.70;;;;;;;;;;5116077;28;20865;-76
2022/10/24 07:33:56;;;;;;;17.57;16.50;;;;;;;;;;5116136;28;20456;-77
2022/10/24 07:36:24;;;;;;;18.27;16.73;;;;;;;;;;5115645;27;20478;-76
2022/10/24 07:38:53;;;;;;;17.63;16.60;;;;;;;;;;5116314;28;20440;-76
2022/10/24 07:41:20;;;;;;;17.83;16.63;;;;;;;;;;5115506;28;21016;-76
2022/10/24 07:43:48;;;;;;;18.27;17.17;;;;;;;;;;5115545;28;20988;-77
2022/10/24 07:46:17;;;;;;;18.20;17.13;;;;;;;;;;5115550;27;20478;-75
2022/10/24 07:48:45;;;;;;;18.83;17.63;;;;;;;;;;5115979;28;20487;-77
2022/10/24 07:51:13;;;;;;;18.03;16.93;;;;;;;;;;5115554;28;20432;-76
2022/10/24 07:53:41;;;;;;;19.17;17.67;;;;;;;;;;5115608;28;20467;-77
2022/10/24 07:56:10;;;;;;;18.60;17.30;;;;;;;;;;5115182;28;20427;-75
2022/10/24 07:58:38;;;;;;;18.33;16.70;;;;;;;;;;5115451;27;20435;-80
2022/10/24 08:01:06;;;;;;;18.90;17.67;;;;;;;;;;5135941;27;20478;-81
2022/10/24 08:03:35;;;;;;;18.00;17.03;;;;;;;;;;5122296;28;20472;-86
2022/10/24 08:06:05;;;;;;;17.80;16.70;;;;;;;;;;5128331;27;20453;-81
2022/10/24 08:08:32;;;;;;;19.37;18.10;;;;;;;;;;5139809;27;20487;-84
2022/10/24 08:10:59;;;;;;;19.50;17.90;;;;;;;;;;5141072;27;20444;-86
2022/10/24 08:13:26;;;;;;;19.20;17.60;;;;;;;;;;5140280;27;20481;-76
2022/10/24 08:15:55;;;;;;;18.07;17.07;;;;;;;;;;5139841;27;20449;-88
2022/10/24 08:18:22;;;;;;;17.90;16.90;;;;;;;;;;5138399;27;20441;-85
2022/10/24 08:20:58;;;;;;;19.43;18.20;;;;;;;;;;5140839;27;20454;-84
2022/10/24 08:23:26;;;;;;;19.43;18.23;;;;;;;;;;5141639;27;21353;-81
2022/10/24 08:25:53;;;;;;;21.00;19.13;;;;;;;;;;5135741;27;20451;-75
2022/10/24 08:28:22;;;;;;;18.60;17.40;;;;;;;;;;5135457;27;20504;-75
2022/10/24 08:30:55;;;;;;;20.17;18.53;;;;;;;;;;5135561;27;20449;-75
2022/10/24 08:33:23;;;;;;;19.97;18.63;;;;;;;;;;5134836;27;20454;-74
2022/10/24 08:35:50;;;;;;;18.67;17.27;;;;;;;;;;5135318;27;20974;-75
2022/10/24 08:38:19;;;;;;;18.80;17.43;;;;;;;;;;5135357;27;20479;-75
2022/10/24 08:40:48;;;;;;;19.40;18.10;;;;;;;;;;5135182;27;20455;-74
2022/10/24 08:43:17;;;;;;;19.30;18.00;;;;;;;;;;5134490;27;20542;-75
2022/10/24 08:45:50;;;;;;;19.23;18.03;;;;;;;;;;5135418;27;20449;-75
2022/10/24 08:48:20;;;;;;;18.50;17.43;;;;;;;;;;5135225;27;20508;-76
2022/10/24 08:50:50;;;;;;;19.27;17.83;;;;;;;;;;5135195;27;20434;-77
2022/10/24 08:53:20;;;;;;;20.33;18.83;;;;;;;;;;5134348;27;20459;-75
2022/10/24 08:55:50;;;;;;;24.33;21.63;;;;;;;;;;5134510;27;20476;-75
2022/10/24 08:58:19;;;;;;;20.03;18.50;;;;;;;;;;5134874;27;20484;-75
2022/10/24 09:00:48;;;;;;;40.23;20.50;;;;;;;;;;5134730;27;20446;-75
2022/10/24 09:03:17;;;;;;;19.20;18.17;;;;;;;;;;5134477;27;20463;-74
2022/10/24 09:05:47;;;;;;;19.70;18.43;;;;;;;;;;5134036;27;20443;-75
2022/10/24 09:08:18;;;;;;;23.23;18.63;;;;;;;;;;5133603;27;20485;-75
2022/10/24 09:10:51;;;;;;;18.93;17.87;;;;;;;;;;5135029;27;20854;-74
2022/10/24 09:13:22;;;;;;;19.47;18.27;;;;;;;;;;5133986;27;20485;-75
2022/10/24 09:15:50;;;;;;;18.97;17.77;;;;;;;;;;5134160;27;20496;-75
2022/10/24 09:18:20;;;;;;;20.17;18.63;;;;;;;;;;5134898;27;20802;-75
2022/10/24 09:20:48;;;;;;;21.07;19.40;;;;;;;;;;5134614;27;20833;-75
2022/10/24 09:23:16;;;;;;;19.97;18.77;;;;;;;;;;5133674;27;20485;-74
2022/10/24 09:25:46;;;;;;;20.43;19.13;;;;;;;;;;5134318;27;20450;-75
2022/10/24 09:28:16;;;;;;;20.30;19.17;;;;;;;;;;5134340;27;20541;-75
2022/10/24 09:30:44;;;;;;;19.73;18.53;;;;;;;;;;5133909;27;20985;-75
2022/10/24 09:33:15;;;;;;;20.57;19.37;;;;;;;;;;5134070;27;20473;-74
2022/10/24 09:35:43;;;;;;;20.80;19.60;;;;;;;;;;5134561;27;20440;-75
2022/10/24 09:38:30;;;;;;;21.10;19.50;;;;;;;;;;5134464;27;20455;-75
2022/10/24 09:41:01;;;;;;;20.30;18.97;;;;;;;;;;5132981;27;20962;-76
2022/10/24 09:43:33;;;;;;;19.80;18.60;;;;;;;;;;5133967;27;20443;-75
2022/10/24 09:46:02;;;;;;;19.83;18.53;;;;;;;;;;5134102;27;20937;-75
2022/10/24 09:48:34;;;;;;;19.87;18.57;;;;;;;;;;5133998;27;20516;-75
2022/10/24 09:51:02;;;;;;;19.67;18.43;;;;;;;;;;5133154;27;20518;-76
2022/10/24 09:53:32;;;;;;;20.10;18.80;;;;;;;;;;5135340;27;20477;-82
2022/10/24 09:56:00;;;;;;;21.20;19.20;;;;;;;;;;5139466;27;20441;-79
2022/10/24 09:58:31;;;;;;;19.37;18.37;;;;;;;;;;5135369;27;20442;-78
2022/10/24 10:01:01;;;;;;;19.67;18.47;;;;;;;;;;5134656;27;20464;-79
2022/10/24 10:03:29;;;;;;;20.77;19.47;;;;;;;;;;5134745;27;20483;-79
2022/10/24 10:05:57;;;;;;;19.70;18.60;;;;;;;;;;5134842;27;20454;-78
2022/10/24 10:08:25;;;;;;;20.60;19.30;;;;;;;;;;5135024;27;20482;-79
2022/10/24 10:10:58;;;;;;;20.60;19.40;;;;;;;;;;5135101;27;20421;-79
2022/10/24 10:13:26;;;;;;;19.50;18.30;;;;;;;;;;5134737;27;20478;-78
2022/10/24 10:15:55;;;;;;;19.47;18.37;;;;;;;;;;5134910;27;20937;-78
2022/10/24 10:18:27;;;;;;;20.20;18.83;;;;;;;;;;5135318;27;20449;-78
2022/10/24 10:20:59;;;;;;;21.63;19.90;;;;;;;;;;5133664;27;20461;-78
2022/10/24 10:23:27;;;;;;;20.00;18.90;;;;;;;;;;5134990;27;20471;-78
2022/10/24 10:26:12;;;;;;;20.27;18.97;;;;;;;;;;5134800;27;20452;-78
2022/10/24 10:28:43;;;;;;;19.67;18.47;;;;;;;;;;5134809;27;20501;-78
2022/10/24 10:31:11;;;;;;;20.23;19.00;;;;;;;;;;5133945;27;20471;-78
2022/10/24 10:33:46;;;;;;;21.80;20.30;;;;;;;;;;5134487;27;20466;-78
2022/10/24 10:36:17;;;;;;;20.10;18.90;;;;;;;;;;5134296;27;20816;-78
2022/10/24 10:38:47;;;;;;;20.37;19.17;;;;;;;;;;5134948;27;20430;-78
2022/10/24 10:41:18;;;;;;;20.23;19.03;;;;;;;;;;5133911;27;20435;-78
2022/10/24 10:43:52;;;;;;;20.93;19.40;;;;;;;;;;5133591;27;20490;-79
2022/10/24 10:46:24;;;;;;;20.30;19.03;;;;;;;;;;5134138;27;20435;-78
2022/10/24 10:48:59;;;;;;;19.73;18.40;;;;;;;;;;5134042;27;20470;-79
2022/10/24 10:51:34;;;;;;;20.00;18.90;;;;;;;;;;5133754;27;20678;-78
2022/10/24 10:54:06;;;;;;;21.33;20.00;;;;;;;;;;5133794;27;20514;-78
2022/10/24 10:56:35;;;;;;;20.97;19.67;;;;;;;;;;5134796;27;20435;-78
2022/10/24 10:59:08;;;;;;;20.90;19.13;;;;;;;;;;5134218;27;20457;-78
2022/10/24 11:01:43;;;;;;;20.13;18.93;;;;;;;;;;5134446;27;20917;-77
2022/10/24 11:04:18;;;;;;;21.47;19.93;;;;;;;;;;5134810;27;20472;-79
2022/10/24 11:06:51;;;;;;;22.20;20.60;;;;;;;;;;5135186;27;20440;-78
2022/10/24 11:09:29;;;;;;;21.03;19.80;;;;;;;;;;5135264;27;20451;-78
2022/10/24 11:12:01;;;;;;;21.33;20.03;;;;;;;;;;5134008;27;20435;-78
2022/10/24 11:14:30;;;;;;;20.80;19.43;;;;;;;;;;5134174;27;20489;-78
2022/10/24 11:16:59;;;;;;;20.93;19.63;;;;;;;;;;5134682;27;20453;-78
2022/10/24 11:19:30;;;;;;;20.50;19.30;;;;;;;;;;5134885;27;20448;-78
2022/10/24 11:21:58;;;;;;;22.73;21.40;;;;;;;;;;5133958;27;20469;-79
2022/10/24 11:24:26;;;;;;;20.90;19.43;;;;;;;;;;5134388;27;20469;-78
2022/10/24 11:26:56;;;;;;;22.70;21.00;;;;;;;;;;5135119;27;20450;-81
2022/10/24 11:29:27;;;;;;;19.40;18.20;;;;;;;;;;5134698;27;20454;-78
2022/10/24 11:31:57;;;;;;;20.83;19.53;;;;;;;;;;5136195;27;20448;-79
2022/10/24 11:34:27;;;;;;;20.90;19.30;;;;;;;;;;5139446;27;20469;-79
2022/10/24 11:36:59;;;;;;;20.03;18.93;;;;;;;;;;5139962;27;20454;-78
2022/10/24 11:39:29;;;;;;;21.03;19.50;;;;;;;;;;5140336;27;20431;-78
2022/10/24 11:42:00;;;;;;;20.30;19.00;;;;;;;;;;5139949;27;20972;-84
2022/10/24 11:44:34;;;;;;;20.37;19.00;;;;;;;;;;5140842;27;20485;-82
2022/10/24 11:47:05;;;;;;;22.20;20.50;;;;;;;;;;5142048;27;20441;-84
2022/10/24 11:49:34;;;;;;;22.50;20.80;;;;;;;;;;5136070;27;21017;-76
2022/10/24 11:52:09;;;;;;;19.87;18.87;;;;;;;;;;5129671;27;20475;-85
2022/10/24 11:54:40;;;;;;;20.87;19.50;;;;;;;;;;5142170;27;20472;-84
2022/10/24 11:57:12;;;;;;;21.03;19.57;;;;;;;;;;5143600;27;20419;-84
2022/10/24 11:59:39;;;;;;;21.50;20.20;;;;;;;;;;5141110;27;20444;-84
2022/10/24 12:02:30;;;;;;;21.37;19.70;;;;;;;;;;5135900;27;20546;-76
2022/10/24 12:05:16;;;;;;;20.87;19.53;;;;;;;;;;5136573;27;20433;-77
2022/10/24 12:07:56;;;;;;;22.70;21.30;;;;;;;;;;5139353;27;20448;-82
2022/10/24 12:10:32;;;;;;;30.63;26.70;;;;;;;;;;5135492;27;20570;-76
2022/10/24 12:13:08;;;;;;;33.53;30.83;;;;;;;;;;5133706;27;20547;-76
2022/10/24 12:15:42;;;;;;;21.83;20.63;;;;;;;;;;5136192;27;20449;-77
2022/10/24 12:18:11;;;;;;;21.80;20.40;;;;;;;;;;5135855;27;20525;-77
2022/10/24 12:20:39;;;;;;;21.93;20.63;;;;;;;;;;5136149;27;20441;-77
2022/10/24 12:23:08;;;;;;;21.43;20.23;;;;;;;;;;5135188;27;20484;-78
2022/10/24 12:25:36;;;;;;;22.97;21.80;;;;;;;;;;5136063;27;20425;-77
2022/10/24 12:28:05;;;;;;;23.10;21.70;;;;;;;;;;5135726;27;20449;-78
2022/10/24 12:30:34;;;;;;;20.97;19.67;;;;;;;;;;5135525;27;20500;-78
2022/10/24 12:33:09;;;;;;;20.67;19.37;;;;;;;;;;5135227;27;20831;-78
2022/10/24 12:35:47;;;;;;;21.07;19.87;;;;;;;;;;5135916;27;20437;-76
2022/10/24 12:38:18;;;;;;;21.10;19.60;;;;;;;;;;5135534;27;20865;-76
2022/10/24 12:40:56;;;;;;;20.60;19.40;;;;;;;;;;5135492;27;20430;-77
2022/10/24 12:43:31;;;;;;;19.87;18.60;;;;;;;;;;5134674;27;20485;-76
2022/10/24 12:46:00;;;;;;;25.97;21.60;;;;;;;;;;5135183;27;20968;-78
2022/10/24 12:48:35;;;;;;;20.13;19.00;;;;;;;;;;5135232;27;20475;-78
2022/10/24 12:51:26;;;;;;;19.13;18.13;;;;;;;;;;5135014;27;20468;-76
2022/10/24 12:54:05;;;;;;;19.33;18.13;;;;;;;;;;5134555;27;20490;-77
2022/10/24 12:56:33;;;;;;;20.07;18.63;;;;;;;;;;5135440;27;20433;-77
2022/10/24 12:59:05;;;;;;;20.40;18.90;;;;;;;;;;5135266;27;20450;-77
2022/10/24 13:01:34;;;;;;;20.97;19.40;;;;;;;;;;5134834;27;20466;-78
2022/10/24 13:04:31;;;;;;;20.90;19.50;;;;;;;;;;5134435;27;20469;-76
2022/10/24 13:07:14;;;;;;;24.70;22.57;;;;;;;;;;5135008;27;20434;-77
2022/10/24 13:09:47;;;;;;;21.17;19.80;;;;;;;;;;5122025;27;21008;-77
2022/10/24 13:12:25;;;;;;;21.30;19.93;;;;;;;;;;5134662;27;20436;-77
2022/10/24 13:14:58;;;;;;;21.10;19.40;;;;;;;;;;5134239;27;20456;-77
2022/10/24 13:17:30;;;;;;;20.47;19.07;;;;;;;;;;5134506;27;20396;-78
2022/10/24 13:20:14;;;;;;;21.00;19.70;;;;;;;;;;5134830;27;20411;-77
2022/10/24 13:22:42;;;;;;;21.30;19.23;;;;;;;;;;5134439;27;20447;-77
2022/10/24 13:25:21;;;;;;;21.13;19.80;;;;;;;;;;5134932;27;20839;-77
2022/10/24 13:28:18;;;;;;;20.60;19.20;;;;;;;;;;5135016;27;20430;-78
2022/10/24 13:30:45;;;;;;;21.30;19.57;;;;;;;;;;5133799;27;20469;-77
2022/10/24 13:33:31;;;;;;;21.27;19.67;;;;;;;;;;5134033;27;20461;-79
2022/10/24 13:36:07;;;;;;;20.97;19.67;;;;;;;;;;5134557;27;20453;-76
2022/10/24 13:38:40;;;;;;;23.20;21.57;;;;;;;;;;5134541;27;20436;-77
2022/10/24 13:41:11;;;;;;;20.10;18.83;;;;;;;;;;5134261;27;20457;-77
2022/10/24 13:43:42;;;;;;;21.47;19.97;;;;;;;;;;5133698;27;20489;-77
2022/10/24 13:46:10;;;;;;;20.83;19.33;;;;;;;;;;5134351;27;20407;-76
2022/10/24 13:48:41;;;;;;;20.17;18.83;;;;;;;;;;5134411;27;20456;-77
2022/10/24 13:51:13;;;;;;;20.07;18.70;;;;;;;;;;5133524;27;20507;-76
2022/10/24 13:53:46;;;;;;;22.90;19.83;;;;;;;;;;5133695;27;20448;-77
2022/10/24 13:56:15;;;;;;;19.77;18.50;;;;;;;;;;5134122;27;20514;-77
2022/10/24 13:58:43;;;;;;;21.10;19.50;;;;;;;;;;5133912;27;20780;-76
2022/10/24 14:01:15;;;;;;;20.50;18.93;;;;;;;;;;5132886;27;20474;-77
2022/10/24 14:03:43;;;;;;;19.67;18.27;;;;;;;;;;5133787;27;20446;-77
2022/10/24 14:06:11;;;;;;;19.40;18.20;;;;;;;;;;5134044;27;20447;-76
2022/10/24 14:08:43;;;;;;;21.23;19.60;;;;;;;;;;5133843;27;20416;-75
2022/10/24 14:11:14;;;;;;;20.20;19.00;;;;;;;;;;5132773;27;20517;-77
2022/10/24 14:13:45;;;;;;;19.40;18.30;;;;;;;;;;5133509;27;20894;-77
2022/10/24 14:16:13;;;;;;;20.10;18.73;;;;;;;;;;5133837;27;20454;-76
2022/10/24 14:18:40;;;;;;;20.10;18.67;;;;;;;;;;5133907;27;20450;-76
2022/10/24 14:21:15;;;;;;;20.60;19.30;;;;;;;;;;5133425;27;20450;-76
2022/10/24 14:23:43;;;;;;;21.27;19.50;;;;;;;;;;5133089;27;20488;-76
2022/10/24 14:26:13;;;;;;;21.10;19.87;;;;;;;;;;5133703;27;20454;-76
2022/10/24 14:28:44;;;;;;;21.00;19.53;;;;;;;;;;5133849;28;20768;-76
2022/10/24 14:31:19;;;;;;;21.07;19.67;;;;;;;;;;5134359;28;20445;-78